createdAt,value
2022-12-20T00:02:35.530Z,97.90
2022-12-20T00:06:37.837Z,92.50
2022-12-20T00:10:41.937Z,93.07
2022-12-20T00:14:43.894Z,99.55
2022-12-20T00:18:46.054Z,90.03
2022-12-20T00:22:47.684Z,93.53
2022-12-20T00:26:49.534Z,95.45
2022-12-20T00:30:55.212Z,97.82
2022-12-20T00:34:58.083Z,96.13
2022-12-20T00:39:00.878Z,106.72
2022-12-20T00:43:02.819Z,102.25
2022-12-20T00:47:05.834Z,99.05
2022-12-20T00:51:10.947Z,101.38
2022-12-20T00:55:12.921Z,99.95
2022-12-20T00:59:14.809Z,95.55
2022-12-20T01:03:16.719Z,96.88
2022-12-20T01:07:19.540Z,98.00
2022-12-20T01:11:27.437Z,98.55
2022-12-20T01:15:29.058Z,103.40
2022-12-20T01:19:32.120Z,93.72
2022-12-20T01:23:34.326Z,102.15
2022-12-20T01:27:36.046Z,93.25
2022-12-20T01:31:38.155Z,110.30
2022-12-20T01:35:39.912Z,107.03
2022-12-20T01:39:41.898Z,116.22
2022-12-20T01:43:48.125Z,108.60
2022-12-20T01:47:50.023Z,106.43
2022-12-20T01:52:10.080Z,122.80
2022-12-20T01:56:12.154Z,113.35
2022-12-20T02:00:14.750Z,123.25
2022-12-20T02:04:17.620Z,115.60
2022-12-20T02:08:20.620Z,123.43
2022-12-20T02:12:25.340Z,123.85
2022-12-20T02:16:30.260Z,125.43
2022-12-20T02:20:56.747Z,127.95
2022-12-20T02:25:30.175Z,117.50
2022-12-20T02:30:05.303Z,114.88
2022-12-20T02:34:10.185Z,123.90
2022-12-20T02:38:32.543Z,122.05
2022-12-20T02:42:35.632Z,113.03
2022-12-20T02:46:38.526Z,118.25
2022-12-20T02:50:45.834Z,117.90
2022-12-20T02:54:47.992Z,114.38
2022-12-20T02:59:07.259Z,109.35
2022-12-20T03:03:23.141Z,112.72
2022-12-20T03:07:25.440Z,106.18
2022-12-20T03:11:27.498Z,107.15
2022-12-20T03:15:29.206Z,100.40
2022-12-20T03:19:32.952Z,112.65
2022-12-20T03:23:34.628Z,107.43
2022-12-20T03:27:36.645Z,106.55
2022-12-20T03:31:39.402Z,109.85
2022-12-20T03:35:41.472Z,109.25
2022-12-20T03:39:44.449Z,99.07
2022-12-20T03:43:46.518Z,95.50
2022-12-20T03:47:48.616Z,98.32
2022-12-20T03:51:50.813Z,102.78
2022-12-20T03:55:52.992Z,107.03
2022-12-20T03:59:54.973Z,101.40
2022-12-20T04:03:57.214Z,109.22
2022-12-20T04:07:59.242Z,89.75
2022-12-20T04:12:01.932Z,100.68
2022-12-20T04:16:06.092Z,98.57
2022-12-20T04:20:19.121Z,102.35
2022-12-20T04:24:25.904Z,104.43
2022-12-20T04:28:40.327Z,99.22
2022-12-20T04:32:45.222Z,97.82
2022-12-20T04:36:48.034Z,104.75
2022-12-20T04:40:58.923Z,94.35
2022-12-20T04:45:04.368Z,102.22
2022-12-20T04:49:06.523Z,91.75
2022-12-20T04:53:30.384Z,91.40
2022-12-20T04:57:32.761Z,96.68
2022-12-20T05:01:35.973Z,86.68
2022-12-20T05:05:38.500Z,86.72
2022-12-20T05:09:40.237Z,91.30
2022-12-20T05:13:42.603Z,93.97
2022-12-20T05:17:44.325Z,88.68
2022-12-20T05:22:05.928Z,101.82
2022-12-20T05:26:19.817Z,96.00
2022-12-20T05:30:24.843Z,88.60
2022-12-20T05:34:26.788Z,85.78
2022-12-20T05:38:30.594Z,90.10
2022-12-20T05:42:33.445Z,87.43
2022-12-20T05:46:35.494Z,94.00
2022-12-20T05:50:41.641Z,88.50
2022-12-20T05:55:00.474Z,88.75
2022-12-20T05:59:02.836Z,95.15
2022-12-20T06:03:04.689Z,88.63
2022-12-20T06:07:08.562Z,87.53
2022-12-20T06:11:12.377Z,86.35
2022-12-20T06:15:24.156Z,84.35
2022-12-20T06:19:26.401Z,75.30
2022-12-20T06:23:31.193Z,79.85
2022-12-20T06:27:45.699Z,91.05
2022-12-20T06:31:50.589Z,74.68
2022-12-20T06:35:52.974Z,79.05
2022-12-20T06:39:57.513Z,79.68
2022-12-20T06:44:00.311Z,73.90
2022-12-20T06:48:02.109Z,79.35
2022-12-20T06:52:06.183Z,79.88
2022-12-20T06:56:17.762Z,73.45
2022-12-20T07:00:20.583Z,85.38
2022-12-20T07:04:22.203Z,82.28
2022-12-20T07:08:24.984Z,72.30
2022-12-20T07:12:26.952Z,69.72
2022-12-20T07:16:28.987Z,77.68
2022-12-20T07:20:31.433Z,62.17
2022-12-20T07:24:34.747Z,75.05
2022-12-20T07:28:36.421Z,66.45
2022-12-20T07:32:38.657Z,68.82
2022-12-20T07:36:40.729Z,58.92
2022-12-20T07:40:43.350Z,66.57
2022-12-20T07:44:45.533Z,72.85
2022-12-20T07:48:47.528Z,71.70
2022-12-20T07:52:50.889Z,65.43
2022-12-20T07:56:58.498Z,62.85
2022-12-20T08:01:02.413Z,62.60
2022-12-20T08:05:07.715Z,59.35
2022-12-20T08:09:14.599Z,59.20
2022-12-20T08:13:17.238Z,56.42
2022-12-20T08:17:18.987Z,65.43
2022-12-20T08:21:20.987Z,64.50
2022-12-20T08:25:22.765Z,67.68
2022-12-20T08:29:24.879Z,63.45
2022-12-20T08:33:26.819Z,64.15
2022-12-20T08:37:28.665Z,65.50
2022-12-20T08:41:30.739Z,66.85
2022-12-20T08:45:32.759Z,60.78
2022-12-20T08:49:34.466Z,63.25
2022-12-20T08:53:36.851Z,62.22
2022-12-20T08:57:38.704Z,58.03
2022-12-20T09:01:41.189Z,58.40
2022-12-20T09:05:45.000Z,60.38
2022-12-20T09:09:47.606Z,60.90
2022-12-20T09:13:52.883Z,57.92
2022-12-20T09:17:55.597Z,56.03
2022-12-20T09:21:57.575Z,61.10
2022-12-20T09:26:04.850Z,72.13
2022-12-20T09:30:07.326Z,65.50
2022-12-20T09:34:10.116Z,60.25
2022-12-20T09:38:12.191Z,67.22
2022-12-20T09:42:15.276Z,56.45
2022-12-20T09:46:17.900Z,61.33
2022-12-20T09:50:21.613Z,61.03
2022-12-20T09:54:32.498Z,60.03
2022-12-20T09:58:58.848Z,57.88
2022-12-20T10:03:10.164Z,58.92
2022-12-20T10:07:29.613Z,55.17
2022-12-20T10:16:21.151Z,61.58
2022-12-20T10:20:42.013Z,64.00
2022-12-20T10:25:01.813Z,61.65
2022-12-20T10:29:03.534Z,62.50
2022-12-20T10:33:05.548Z,59.53
2022-12-20T10:37:16.141Z,65.93
2022-12-20T10:41:27.821Z,63.10
2022-12-20T10:45:41.958Z,64.28
2022-12-20T10:49:43.705Z,53.15
2022-12-20T10:54:03.942Z,56.50
2022-12-20T10:58:30.295Z,60.78
2022-12-20T11:02:41.359Z,60.10
2022-12-20T11:06:45.570Z,56.80
2022-12-20T11:10:47.672Z,64.50
2022-12-20T11:14:50.019Z,83.68
2022-12-20T11:19:30.010Z,83.80
2022-12-20T11:23:58.531Z,70.05
2022-12-20T11:28:39.945Z,74.75
2022-12-20T11:33:12.634Z,67.10
2022-12-20T11:37:21.806Z,68.20
2022-12-20T11:41:45.141Z,57.10
2022-12-20T11:46:26.076Z,59.20
2022-12-20T11:50:45.340Z,65.47
2022-12-20T11:55:02.116Z,67.65
2022-12-20T11:59:12.985Z,68.65
2022-12-20T12:03:35.527Z,65.38
2022-12-20T12:07:41.837Z,63.97
2022-12-20T12:12:09.184Z,68.80
2022-12-20T12:16:33.834Z,59.45
2022-12-20T12:20:56.579Z,64.68
2022-12-20T12:25:03.437Z,65.22
2022-12-20T12:29:13.144Z,74.38
2022-12-20T12:33:25.800Z,63.95
2022-12-20T12:38:19.116Z,73.07
2022-12-20T12:42:44.317Z,68.03
2022-12-20T12:46:51.634Z,60.13
2022-12-20T12:50:57.920Z,71.77
2022-12-20T12:54:59.685Z,65.82
2022-12-20T12:59:07.836Z,69.95
2022-12-20T13:03:16.831Z,62.20
2022-12-20T13:07:33.838Z,60.05
2022-12-20T13:11:42.784Z,58.92
2022-12-20T13:15:52.855Z,70.68
2022-12-20T13:19:56.120Z,67.25
2022-12-20T13:24:50.655Z,99.35
2022-12-20T13:28:52.888Z,106.53
2022-12-20T13:33:02.835Z,78.03
2022-12-20T13:37:28.823Z,73.40
2022-12-20T13:41:38.517Z,71.80
2022-12-20T13:45:45.637Z,72.18
2022-12-20T13:49:47.848Z,71.45
2022-12-20T13:54:02.008Z,73.15
2022-12-20T13:58:13.354Z,84.35
2022-12-20T14:02:22.371Z,83.00
2022-12-20T14:06:27.439Z,86.50
2022-12-20T14:10:32.195Z,82.97
2022-12-20T14:14:45.474Z,86.80
2022-12-20T14:19:00.746Z,72.53
2022-12-20T14:23:12.367Z,73.68
2022-12-20T14:27:14.589Z,72.60
2022-12-20T14:31:39.038Z,84.15
2022-12-20T14:35:48.075Z,81.60
2022-12-20T14:40:03.188Z,76.53
2022-12-20T14:44:08.134Z,80.32
2022-12-20T14:48:16.526Z,81.75
2022-12-20T14:52:30.345Z,78.90
2022-12-20T14:56:33.478Z,80.28
2022-12-20T15:00:36.488Z,77.07
2022-12-20T15:04:38.127Z,78.88
2022-12-20T15:08:40.591Z,74.43
2022-12-20T15:12:42.807Z,78.50
2022-12-20T15:16:48.980Z,85.25
2022-12-20T15:21:19.941Z,77.63
2022-12-20T15:25:21.993Z,78.65
2022-12-20T15:29:28.665Z,97.22
2022-12-20T15:33:34.632Z,84.72
2022-12-20T15:37:36.329Z,107.60
2022-12-20T15:41:42.661Z,94.50
2022-12-20T15:45:46.515Z,74.95
2022-12-20T15:49:50.667Z,80.30
2022-12-20T15:53:52.978Z,78.90
2022-12-20T15:57:54.825Z,84.72
2022-12-20T16:01:57.041Z,85.47
2022-12-20T16:05:58.914Z,132.90
2022-12-20T16:10:00.939Z,87.20
2022-12-20T16:14:03.394Z,72.88
2022-12-20T16:18:05.232Z,87.15
2022-12-20T16:22:19.297Z,77.93
2022-12-20T16:26:23.165Z,80.85
2022-12-20T16:30:25.914Z,110.40
2022-12-20T16:34:28.959Z,87.13
2022-12-20T16:38:30.611Z,86.30
2022-12-20T16:42:32.534Z,77.95
2022-12-20T16:46:34.870Z,73.53
2022-12-20T16:50:41.568Z,79.20
2022-12-20T16:54:43.589Z,79.85
2022-12-20T16:59:17.712Z,78.93
2022-12-20T17:03:07.741Z,78.75
2022-12-20T17:07:10.322Z,76.28
2022-12-20T17:11:15.023Z,76.65
2022-12-20T17:15:18.700Z,78.55
2022-12-20T17:19:23.747Z,80.28
2022-12-20T17:23:43.773Z,74.72
2022-12-20T17:27:45.769Z,81.78
2022-12-20T17:31:48.038Z,78.63
2022-12-20T17:35:50.181Z,79.38
2022-12-20T17:39:52.100Z,81.22
2022-12-20T17:43:55.231Z,88.35
2022-12-20T17:47:57.733Z,85.65
2022-12-20T17:51:59.903Z,92.35
2022-12-20T17:56:01.763Z,82.88
2022-12-20T18:00:04.181Z,82.07
2022-12-20T18:04:07.842Z,81.40
2022-12-20T18:08:10.140Z,82.50
2022-12-20T18:12:12.095Z,88.63
2022-12-20T18:16:16.536Z,88.28
2022-12-20T18:20:18.650Z,79.57
2022-12-20T18:24:21.523Z,81.18
2022-12-20T18:28:23.386Z,90.05
2022-12-20T18:32:25.627Z,80.75
2022-12-20T18:36:30.512Z,82.85
2022-12-20T18:40:32.278Z,85.18
2022-12-20T18:44:36.216Z,86.78
2022-12-20T18:48:39.009Z,76.00
2022-12-20T18:52:43.261Z,82.72
2022-12-20T18:56:49.375Z,97.45
2022-12-20T19:00:58.491Z,130.85
2022-12-20T19:05:00.789Z,238.57
2022-12-20T19:09:06.635Z,149.80
2022-12-20T19:13:08.459Z,102.57
2022-12-20T19:17:10.649Z,89.78
2022-12-20T19:21:15.613Z,95.35
2022-12-20T19:25:17.630Z,86.60
2022-12-20T19:29:19.796Z,82.78
2022-12-20T19:33:22.056Z,82.90
2022-12-20T19:37:24.063Z,76.20
2022-12-20T19:41:32.041Z,77.03
2022-12-20T19:45:37.892Z,79.57
2022-12-20T19:49:39.888Z,85.10
2022-12-20T19:53:44.511Z,79.78
2022-12-20T19:57:46.693Z,86.80
2022-12-20T20:01:49.414Z,76.25
2022-12-20T20:05:52.705Z,74.40
2022-12-20T20:09:55.073Z,81.95
2022-12-20T20:13:56.989Z,71.57
2022-12-20T20:17:59.056Z,76.03
2022-12-20T20:22:00.870Z,78.40
2022-12-20T20:26:07.489Z,73.95
2022-12-20T20:30:11.253Z,68.95
2022-12-20T20:34:13.387Z,73.40
2022-12-20T20:38:15.507Z,71.65
2022-12-20T20:42:23.085Z,77.18
2022-12-20T20:46:25.639Z,78.20
2022-12-20T20:50:27.877Z,75.75
2022-12-20T20:54:29.739Z,76.93
2022-12-20T20:58:32.851Z,74.55
2022-12-20T21:02:34.820Z,73.97
2022-12-20T21:06:40.936Z,69.88
2022-12-20T21:10:43.631Z,83.00
2022-12-20T21:15:20.622Z,75.65
2022-12-20T21:19:09.539Z,74.78
2022-12-20T21:23:12.092Z,68.57
2022-12-20T21:27:13.980Z,77.63
2022-12-20T21:31:19.354Z,71.47
2022-12-20T21:35:21.337Z,78.78
2022-12-20T21:39:23.498Z,85.03
2022-12-20T21:43:25.349Z,73.30
2022-12-20T21:47:27.477Z,76.20
2022-12-20T21:51:30.482Z,71.30
2022-12-20T21:55:32.287Z,84.28
2022-12-20T21:59:34.359Z,78.30
2022-12-20T22:03:37.890Z,77.78
2022-12-20T22:07:39.842Z,82.28
2022-12-20T22:11:42.152Z,82.97
2022-12-20T22:15:44.190Z,79.10
2022-12-20T22:19:45.982Z,79.13
2022-12-20T22:23:48.070Z,94.25
2022-12-20T22:27:50.442Z,81.15
2022-12-20T22:31:52.745Z,78.65
2022-12-20T22:35:54.901Z,81.82
2022-12-20T22:39:56.680Z,77.28
2022-12-20T22:43:59.515Z,80.03
2022-12-20T22:48:01.298Z,77.35
2022-12-20T22:52:07.683Z,78.72
2022-12-20T22:56:10.841Z,74.32
2022-12-20T23:00:13.570Z,82.97
2022-12-20T23:04:15.634Z,80.65
2022-12-20T23:08:17.753Z,79.53
2022-12-20T23:12:38.324Z,76.65
2022-12-20T23:16:40.466Z,82.75
2022-12-20T23:21:00.974Z,82.25
2022-12-20T23:25:14.151Z,76.28
2022-12-20T23:29:16.256Z,75.55
2022-12-20T23:33:18.308Z,78.35
2022-12-20T23:37:20.096Z,84.93
2022-12-20T23:41:22.430Z,80.55
2022-12-20T23:45:24.527Z,88.18
2022-12-20T23:49:26.684Z,90.05
2022-12-20T23:53:28.865Z,87.78
2022-12-20T23:57:31.873Z,81.70
